createdAt,value
2023-02-20T00:02:04.595Z,60.64
2023-02-20T00:07:11.987Z,60.59
2023-02-20T00:12:18.863Z,60.64
2023-02-20T00:17:26.117Z,60.56
2023-02-20T00:22:33.856Z,60.60
2023-02-20T00:27:40.860Z,60.47
2023-02-20T00:32:48.362Z,60.58
2023-02-20T00:37:56.181Z,60.67
2023-02-20T00:43:03.422Z,60.48
2023-02-20T00:48:10.663Z,60.56
2023-02-20T00:53:17.823Z,60.47
2023-02-20T00:58:25.004Z,60.58
2023-02-20T01:03:32.703Z,60.59
2023-02-20T01:08:39.940Z,60.63
2023-02-20T01:13:47.580Z,60.46
2023-02-20T01:18:54.943Z,60.50
2023-02-20T01:24:02.260Z,60.51
2023-02-20T01:29:09.531Z,60.59
2023-02-20T01:34:16.421Z,60.59
2023-02-20T01:39:24.373Z,60.56
2023-02-20T01:44:32.344Z,60.46
2023-02-20T01:49:42.234Z,60.40
2023-02-20T01:54:52.902Z,60.40
2023-02-20T02:00:03.142Z,60.63
2023-02-20T02:05:11.891Z,60.51
2023-02-20T02:10:20.555Z,60.56
2023-02-20T02:15:27.892Z,60.60
2023-02-20T02:26:14.170Z,60.63
2023-02-20T02:31:43.302Z,60.64
2023-02-20T02:36:55.834Z,60.48
2023-02-20T02:42:09.277Z,60.53
2023-02-20T02:47:20.345Z,60.45
2023-02-20T02:52:47.120Z,60.59
2023-02-20T02:57:54.307Z,60.55
2023-02-20T03:03:04.769Z,60.64
2023-02-20T03:08:23.058Z,60.55
2023-02-20T03:13:49.927Z,60.62
2023-02-20T03:18:58.327Z,60.57
2023-02-20T03:24:06.329Z,60.65
2023-02-20T03:29:15.004Z,60.79
2023-02-20T03:34:41.986Z,60.86
2023-02-20T03:40:09.156Z,60.70
2023-02-20T03:45:18.305Z,60.59
2023-02-20T03:50:43.026Z,60.66
2023-02-20T03:55:51.391Z,60.64
2023-02-20T04:01:00.114Z,60.80
2023-02-20T04:06:08.854Z,60.74
2023-02-20T04:11:18.506Z,60.77
2023-02-20T04:16:26.274Z,60.85
2023-02-20T04:21:36.592Z,60.72
2023-02-20T04:26:44.702Z,61.11
2023-02-20T04:31:52.149Z,61.06
2023-02-20T04:37:07.188Z,60.69
2023-02-20T04:42:14.572Z,60.93
2023-02-20T04:47:21.848Z,60.71
2023-02-20T04:52:29.425Z,61.02
2023-02-20T04:57:36.696Z,61.04
2023-02-20T05:02:44.201Z,61.01
2023-02-20T05:07:51.759Z,61.09
2023-02-20T05:12:59.022Z,60.82
2023-02-20T05:18:06.528Z,61.02
2023-02-20T05:23:13.809Z,61.04
2023-02-20T05:28:21.032Z,61.08
2023-02-20T05:33:28.564Z,60.82
2023-02-20T05:38:36.304Z,60.88
2023-02-20T05:43:44.079Z,61.13
2023-02-20T05:48:52.359Z,61.20
2023-02-20T05:53:59.828Z,61.03
2023-02-20T05:59:07.038Z,60.86
2023-02-20T06:04:14.274Z,61.05
2023-02-20T06:09:21.708Z,61.03
2023-02-20T06:14:28.909Z,60.96
2023-02-20T06:19:36.288Z,61.02
2023-02-20T06:24:46.810Z,61.22
2023-02-20T06:29:54.299Z,61.16
2023-02-20T06:35:01.663Z,61.12
2023-02-20T06:40:09.384Z,60.96
2023-02-20T06:45:16.845Z,61.23
2023-02-20T06:50:24.176Z,61.07
2023-02-20T06:55:31.676Z,61.09
2023-02-20T07:00:38.986Z,61.05
2023-02-20T07:05:47.048Z,61.09
2023-02-20T07:10:55.737Z,60.89
2023-02-20T07:16:02.865Z,60.88
2023-02-20T07:21:10.014Z,61.01
2023-02-20T07:26:23.904Z,60.79
2023-02-20T07:31:30.946Z,60.89
2023-02-20T07:36:38.342Z,60.79
2023-02-20T07:41:45.493Z,60.75
2023-02-20T07:46:52.763Z,60.94
2023-02-20T07:52:00.362Z,61.22
2023-02-20T07:57:07.943Z,60.97
2023-02-20T08:02:15.495Z,60.84
2023-02-20T08:07:23.013Z,60.70
2023-02-20T08:12:29.989Z,60.85
2023-02-20T08:17:45.973Z,60.72
2023-02-20T08:22:55.222Z,60.95
2023-02-20T08:28:02.409Z,60.87
2023-02-20T08:33:09.373Z,60.88
2023-02-20T08:38:26.379Z,60.95
2023-02-20T08:43:33.623Z,60.69
2023-02-20T08:48:40.666Z,60.90
2023-02-20T08:53:47.847Z,60.71
2023-02-20T08:58:55.578Z,60.78
2023-02-20T09:04:02.899Z,60.30
2023-02-20T09:09:10.430Z,60.64
2023-02-20T09:14:17.741Z,60.43
2023-02-20T09:19:25.384Z,60.36
2023-02-20T09:24:34.667Z,60.58
2023-02-20T09:29:43.432Z,60.57
2023-02-20T09:34:50.434Z,60.71
2023-02-20T09:39:57.703Z,60.69
2023-02-20T09:45:08.656Z,60.57
2023-02-20T09:50:18.595Z,60.58
2023-02-20T09:55:29.790Z,60.74
2023-02-20T10:00:38.132Z,60.78
2023-02-20T10:05:47.099Z,60.38
2023-02-20T10:10:57.360Z,60.56
2023-02-20T10:16:09.072Z,60.56
2023-02-20T10:21:19.764Z,60.49
2023-02-20T10:26:28.836Z,60.27
2023-02-20T10:31:39.633Z,60.42
2023-02-20T10:36:49.032Z,60.11
2023-02-20T10:42:00.425Z,60.28
2023-02-20T10:47:09.156Z,60.44
2023-02-20T10:52:32.585Z,60.35
2023-02-20T10:57:44.123Z,60.07
2023-02-20T11:02:58.024Z,60.27
2023-02-20T11:08:05.391Z,60.03
2023-02-20T11:13:16.078Z,60.39
2023-02-20T11:18:26.721Z,60.15
2023-02-20T11:23:38.578Z,59.89
2023-02-20T11:28:46.375Z,59.86
2023-02-20T11:33:57.061Z,58.86
2023-02-20T11:39:07.143Z,59.09
2023-02-20T11:44:21.944Z,59.42
2023-02-20T11:49:30.739Z,59.17
2023-02-20T11:54:37.884Z,59.26
2023-02-20T11:59:45.281Z,59.48
2023-02-20T12:05:05.045Z,59.47
2023-02-20T12:10:28.139Z,59.60
2023-02-20T12:15:35.803Z,59.80
2023-02-20T12:20:46.866Z,59.63
2023-02-20T12:26:00.109Z,59.80
2023-02-20T12:31:18.529Z,59.66
2023-02-20T12:36:30.450Z,59.54
2023-02-20T12:41:49.000Z,59.43
2023-02-20T12:47:01.090Z,59.77
2023-02-20T12:52:15.706Z,59.69
2023-02-20T12:57:25.973Z,59.61
2023-02-20T13:02:42.338Z,59.62
2023-02-20T13:07:54.010Z,59.80
2023-02-20T13:13:01.538Z,59.58
2023-02-20T13:18:13.050Z,59.59
2023-02-20T13:23:31.092Z,59.68
2023-02-20T13:28:46.258Z,59.91
2023-02-20T13:33:54.807Z,59.79
2023-02-20T13:39:15.350Z,59.56
2023-02-20T13:44:39.900Z,59.47
2023-02-20T13:50:00.743Z,59.83
2023-02-20T13:55:15.631Z,59.62
2023-02-20T14:00:32.408Z,59.55
2023-02-20T14:05:39.482Z,59.70
2023-02-20T14:10:49.684Z,59.64
2023-02-20T14:15:57.690Z,59.51
2023-02-20T14:21:12.260Z,59.62
2023-02-20T14:26:24.491Z,59.64
2023-02-20T14:31:34.880Z,60.01
2023-02-20T14:37:00.409Z,59.61
2023-02-20T14:42:13.421Z,59.70
2023-02-20T14:47:20.498Z,59.80
2023-02-20T14:52:28.280Z,59.72
2023-02-20T14:57:35.500Z,59.80
2023-02-20T15:02:45.412Z,59.42
2023-02-20T15:07:52.950Z,59.83
2023-02-20T15:13:03.509Z,59.87
2023-02-20T15:18:12.613Z,59.89
2023-02-20T15:23:29.833Z,59.89
2023-02-20T15:28:36.888Z,60.03
2023-02-20T15:33:44.998Z,59.88
2023-02-20T15:38:55.146Z,59.55
2023-02-20T15:44:03.851Z,59.82
2023-02-20T15:49:19.339Z,59.75
2023-02-20T15:54:28.014Z,59.76
2023-02-20T15:59:35.612Z,59.67
2023-02-20T16:04:43.491Z,59.76
2023-02-20T16:09:51.072Z,59.60
2023-02-20T16:14:59.416Z,59.65
2023-02-20T16:20:15.764Z,59.93
2023-02-20T16:25:25.233Z,59.69
2023-02-20T16:30:35.210Z,59.42
2023-02-20T16:35:42.856Z,59.44
2023-02-20T16:40:55.244Z,59.54
2023-02-20T16:46:02.442Z,59.76
2023-02-20T16:51:14.483Z,59.84
2023-02-20T16:56:21.614Z,59.66
2023-02-20T17:01:29.109Z,59.77
2023-02-20T17:06:36.544Z,59.73
2023-02-20T17:11:43.652Z,60.00
2023-02-20T17:16:51.950Z,59.68
2023-02-20T17:21:59.955Z,59.57
2023-02-20T17:27:07.003Z,59.95
2023-02-20T17:32:14.635Z,59.76
2023-02-20T17:37:22.033Z,59.86
2023-02-20T17:42:29.613Z,59.94
2023-02-20T17:47:37.946Z,60.02
2023-02-20T17:52:46.184Z,59.83
2023-02-20T17:57:53.842Z,59.82
2023-02-20T18:03:01.557Z,59.96
2023-02-20T18:08:09.352Z,59.72
2023-02-20T18:13:16.980Z,59.91
2023-02-20T18:18:24.208Z,59.65
2023-02-20T18:23:31.646Z,59.70
2023-02-20T18:28:39.245Z,59.85
2023-02-20T18:33:46.788Z,59.73
2023-02-20T18:38:53.970Z,59.95
2023-02-20T18:44:01.038Z,59.71
2023-02-20T18:49:08.329Z,59.59
2023-02-20T18:54:19.145Z,59.96
2023-02-20T18:59:27.561Z,59.94
2023-02-20T19:04:35.111Z,59.82
2023-02-20T19:09:43.733Z,59.70
2023-02-20T19:14:51.373Z,59.84
2023-02-20T19:19:58.829Z,60.12
2023-02-20T19:25:06.205Z,59.83
2023-02-20T19:30:14.112Z,59.78
2023-02-20T19:35:22.931Z,59.78
2023-02-20T19:40:30.031Z,59.56
2023-02-20T19:45:37.344Z,59.60
2023-02-20T19:50:44.483Z,59.86
2023-02-20T19:55:54.750Z,59.78
2023-02-20T20:01:02.161Z,59.95
2023-02-20T20:06:11.525Z,59.94
2023-02-20T20:11:19.001Z,59.80
2023-02-20T20:16:26.379Z,59.99
2023-02-20T20:21:34.060Z,59.90
2023-02-20T20:26:41.971Z,60.30
2023-02-20T20:31:49.486Z,59.84
2023-02-20T20:36:56.880Z,59.85
2023-02-20T20:42:04.028Z,59.96
2023-02-20T20:47:11.479Z,59.86
2023-02-20T20:52:19.198Z,59.78
2023-02-20T20:57:27.494Z,59.99
2023-02-20T21:02:34.813Z,59.91
2023-02-20T21:07:42.164Z,59.95
2023-02-20T21:12:49.627Z,59.67
2023-02-20T21:17:57.061Z,60.07
2023-02-20T21:23:05.167Z,59.82
2023-02-20T21:28:12.388Z,59.96
2023-02-20T21:33:19.930Z,59.78
2023-02-20T21:38:27.179Z,59.99
2023-02-20T21:43:52.350Z,59.90
2023-02-20T21:48:59.677Z,59.87
2023-02-20T21:54:07.559Z,59.67
2023-02-20T21:59:13.328Z,59.77
2023-02-20T22:04:19.380Z,59.80
2023-02-20T22:09:44.028Z,59.76
2023-02-20T22:15:08.748Z,59.74
2023-02-20T22:20:33.353Z,59.65
2023-02-20T22:25:57.852Z,60.04
2023-02-20T22:31:23.641Z,59.59
2023-02-20T22:36:48.095Z,59.70
2023-02-20T22:42:14.236Z,59.61
2023-02-20T22:47:39.886Z,59.94
2023-02-20T22:53:04.696Z,59.69
2023-02-20T22:58:29.930Z,59.79
2023-02-20T23:03:57.197Z,59.77
2023-02-20T23:09:22.008Z,59.72
2023-02-20T23:14:46.518Z,59.60
2023-02-20T23:20:11.133Z,59.80
2023-02-20T23:25:35.742Z,59.67
2023-02-20T23:31:00.645Z,59.88
2023-02-20T23:36:25.763Z,59.84
2023-02-20T23:41:50.479Z,59.96
2023-02-20T23:47:15.077Z,59.64
2023-02-20T23:52:40.216Z,59.75
2023-02-20T23:58:05.470Z,59.78
